sensor_id;sensor_type;location;lat;lon;timestamp;pressure;altitude;pressure_sealevel;temperature;humidity
76627;BME280;65519;53.230;10.390;2023-08-31T00:01:40;100151.06;;;14.18;97.47
76627;BME280;65519;53.230;10.390;2023-08-31T00:04:06;100147.94;;;14.25;96.39
76627;BME280;65519;53.230;10.390;2023-08-31T00:06:40;100159.28;;;14.18;96.46
76627;BME280;65519;53.230;10.390;2023-08-31T00:09:06;100157.56;;;14.22;96.01
76627;BME280;65519;53.230;10.390;2023-08-31T00:11:35;100149.75;;;14.16;95.93
76627;BME280;65519;53.230;10.390;2023-08-31T00:14:01;100153.41;;;14.25;95.63
76627;BME280;65519;53.230;10.390;2023-08-31T00:16:26;100146.91;;;14.21;95.01
76627;BME280;65519;53.230;10.390;2023-08-31T00:18:52;100151.19;;;14.27;95.19
76627;BME280;65519;53.230;10.390;2023-08-31T00:21:18;100144.88;;;14.13;95.77
76627;BME280;65519;53.230;10.390;2023-08-31T00:23:43;100146.22;;;14.15;94.96
76627;BME280;65519;53.230;10.390;2023-08-31T00:26:09;100147.50;;;14.18;96.43
76627;BME280;65519;53.230;10.390;2023-08-31T00:28:35;100144.47;;;14.19;95.63
76627;BME280;65519;53.230;10.390;2023-08-31T00:31:02;100147.28;;;14.28;95.27
76627;BME280;65519;53.230;10.390;2023-08-31T00:33:29;100152.59;;;14.24;95.34
76627;BME280;65519;53.230;10.390;2023-08-31T00:35:54;100153.41;;;13.98;96.94
76627;BME280;65519;53.230;10.390;2023-08-31T00:38:27;100158.91;;;14.11;96.93
76627;BME280;65519;53.230;10.390;2023-08-31T00:40:52;100165.91;;;14.04;96.81
76627;BME280;65519;53.230;10.390;2023-08-31T00:43:19;100163.84;;;13.96;97.02
76627;BME280;65519;53.230;10.390;2023-08-31T00:45:48;100159.41;;;14.00;97.01
76627;BME280;65519;53.230;10.390;2023-08-31T00:48:15;100160.13;;;13.92;97.62
76627;BME280;65519;53.230;10.390;2023-08-31T00:50:45;100164.78;;;13.91;97.60
76627;BME280;65519;53.230;10.390;2023-08-31T00:53:11;100154.13;;;13.89;99.02
76627;BME280;65519;53.230;10.390;2023-08-31T00:55:36;100161.53;;;13.89;97.22
76627;BME280;65519;53.230;10.390;2023-08-31T00:58:02;100159.47;;;13.67;98.84
76627;BME280;65519;53.230;10.390;2023-08-31T01:03:53;100149.56;;;13.71;99.11
76627;BME280;65519;53.230;10.390;2023-08-31T01:06:36;100160.00;;;13.69;98.78
76627;BME280;65519;53.230;10.390;2023-08-31T01:12:18;100161.81;;;13.60;98.76
76627;BME280;65519;53.230;10.390;2023-08-31T01:14:49;100161.88;;;13.55;99.14
76627;BME280;65519;53.230;10.390;2023-08-31T01:17:17;100162.19;;;13.53;100.00
76627;BME280;65519;53.230;10.390;2023-08-31T01:19:51;100163.00;;;13.54;99.94
76627;BME280;65519;53.230;10.390;2023-08-31T01:22:57;100162.53;;;13.66;98.68
76627;BME280;65519;53.230;10.390;2023-08-31T01:25:26;100161.50;;;13.62;98.53
76627;BME280;65519;53.230;10.390;2023-08-31T01:27:51;100141.00;;;13.45;99.53
76627;BME280;65519;53.230;10.390;2023-08-31T01:30:17;100160.88;;;13.51;99.48
76627;BME280;65519;53.230;10.390;2023-08-31T01:32:44;100160.97;;;13.46;99.39
76627;BME280;65519;53.230;10.390;2023-08-31T01:35:16;100164.94;;;13.53;99.46
76627;BME280;65519;53.230;10.390;2023-08-31T01:40:20;100170.41;;;13.40;100.00
76627;BME280;65519;53.230;10.390;2023-08-31T01:42:48;100167.22;;;13.33;99.26
76627;BME280;65519;53.230;10.390;2023-08-31T01:45:22;100169.34;;;13.36;99.37
76627;BME280;65519;53.230;10.390;2023-08-31T01:47:48;100172.63;;;13.38;98.08
76627;BME280;65519;53.230;10.390;2023-08-31T01:50:14;100174.25;;;13.39;98.91
76627;BME280;65519;53.230;10.390;2023-08-31T01:52:40;100160.03;;;13.37;98.44
76627;BME280;65519;53.230;10.390;2023-08-31T01:55:06;100162.03;;;13.31;98.98
76627;BME280;65519;53.230;10.390;2023-08-31T01:57:32;100155.56;;;13.27;99.36
76627;BME280;65519;53.230;10.390;2023-08-31T02:00:25;100160.44;;;13.30;99.00
76627;BME280;65519;53.230;10.390;2023-08-31T02:02:51;100163.94;;;13.31;97.91
76627;BME280;65519;53.230;10.390;2023-08-31T02:05:17;100152.50;;;13.10;97.19
76627;BME280;65519;53.230;10.390;2023-08-31T02:07:42;100172.44;;;13.15;98.72
76627;BME280;65519;53.230;10.390;2023-08-31T02:10:08;100169.31;;;13.03;98.84
76627;BME280;65519;53.230;10.390;2023-08-31T02:12:34;100182.63;;;12.91;99.67
76627;BME280;65519;53.230;10.390;2023-08-31T02:15:01;100164.59;;;12.90;99.49
76627;BME280;65519;53.230;10.390;2023-08-31T02:17:27;100181.66;;;13.01;100.00
76627;BME280;65519;53.230;10.390;2023-08-31T02:19:53;100184.91;;;13.03;99.34
76627;BME280;65519;53.230;10.390;2023-08-31T02:22:18;100189.44;;;12.94;99.67
76627;BME280;65519;53.230;10.390;2023-08-31T02:24:46;100187.00;;;12.92;100.00
76627;BME280;65519;53.230;10.390;2023-08-31T02:27:12;100187.38;;;12.86;100.00
76627;BME280;65519;53.230;10.390;2023-08-31T02:29:38;100190.69;;;12.83;100.00
76627;BME280;65519;53.230;10.390;2023-08-31T02:32:05;100196.47;;;12.81;99.82
76627;BME280;65519;53.230;10.390;2023-08-31T02:34:30;100196.03;;;12.74;100.00
76627;BME280;65519;53.230;10.390;2023-08-31T02:36:56;100191.72;;;12.68;100.00
76627;BME280;65519;53.230;10.390;2023-08-31T02:39:21;100192.84;;;12.67;100.00
76627;BME280;65519;53.230;10.390;2023-08-31T02:41:46;100190.09;;;12.67;99.75
76627;BME280;65519;53.230;10.390;2023-08-31T02:44:12;100178.06;;;12.68;99.26
76627;BME280;65519;53.230;10.390;2023-08-31T02:46:38;100178.50;;;12.56;99.18
76627;BME280;65519;53.230;10.390;2023-08-31T02:49:04;100186.63;;;12.61;98.91
76627;BME280;65519;53.230;10.390;2023-08-31T02:51:30;100185.72;;;12.66;98.64
76627;BME280;65519;53.230;10.390;2023-08-31T02:53:55;100178.50;;;12.56;99.20
76627;BME280;65519;53.230;10.390;2023-08-31T02:56:21;100179.59;;;12.55;98.98
76627;BME280;65519;53.230;10.390;2023-08-31T02:58:46;100188.13;;;12.54;99.02
76627;BME280;65519;53.230;10.390;2023-08-31T03:01:13;100187.13;;;12.44;99.25
76627;BME280;65519;53.230;10.390;2023-08-31T03:03:43;100196.31;;;12.54;98.44
76627;BME280;65519;53.230;10.390;2023-08-31T03:06:11;100197.09;;;12.35;99.50
76627;BME280;65519;53.230;10.390;2023-08-31T03:08:37;100199.19;;;12.43;99.20
76627;BME280;65519;53.230;10.390;2023-08-31T03:11:03;100190.34;;;12.28;98.19
76627;BME280;65519;53.230;10.390;2023-08-31T03:13:29;100202.63;;;12.30;97.70
76627;BME280;65519;53.230;10.390;2023-08-31T03:15:54;100205.22;;;12.40;98.55
76627;BME280;65519;53.230;10.390;2023-08-31T03:18:23;100209.13;;;12.34;97.46
76627;BME280;65519;53.230;10.390;2023-08-31T03:20:49;100208.63;;;12.32;96.83
76627;BME280;65519;53.230;10.390;2023-08-31T03:23:15;100210.16;;;12.38;96.88
76627;BME280;65519;53.230;10.390;2023-08-31T03:25:41;100212.75;;;12.30;97.89
76627;BME280;65519;53.230;10.390;2023-08-31T03:28:07;100213.91;;;12.24;97.51
76627;BME280;65519;53.230;10.390;2023-08-31T03:30:34;100205.41;;;12.25;96.11
76627;BME280;65519;53.230;10.390;2023-08-31T03:33:00;100211.34;;;12.32;97.25
76627;BME280;65519;53.230;10.390;2023-08-31T03:35:26;100215.19;;;12.31;96.55
76627;BME280;65519;53.230;10.390;2023-08-31T03:37:57;100208.13;;;12.25;96.78
76627;BME280;65519;53.230;10.390;2023-08-31T03:40:23;100221.47;;;12.32;96.89
76627;BME280;65519;53.230;10.390;2023-08-31T03:42:50;100219.44;;;12.19;97.14
76627;BME280;65519;53.230;10.390;2023-08-31T03:45:16;100216.00;;;12.08;96.00
76627;BME280;65519;53.230;10.390;2023-08-31T03:47:41;100222.16;;;12.19;95.83
76627;BME280;65519;53.230;10.390;2023-08-31T03:50:07;100211.47;;;11.98;96.87
76627;BME280;65519;53.230;10.390;2023-08-31T03:52:33;100219.31;;;12.05;95.93
76627;BME280;65519;53.230;10.390;2023-08-31T03:54:59;100216.41;;;11.96;96.78
76627;BME280;65519;53.230;10.390;2023-08-31T03:57:24;100222.16;;;11.95;97.13
76627;BME280;65519;53.230;10.390;2023-08-31T03:59:52;100224.41;;;11.88;98.37
76627;BME280;65519;53.230;10.390;2023-08-31T04:02:18;100221.72;;;11.83;99.78
76627;BME280;65519;53.230;10.390;2023-08-31T04:04:46;100226.66;;;11.81;99.33
76627;BME280;65519;53.230;10.390;2023-08-31T04:07:13;100230.00;;;11.78;98.51
76627;BME280;65519;53.230;10.390;2023-08-31T04:09:38;100224.53;;;11.73;99.82
76627;BME280;65519;53.230;10.390;2023-08-31T04:12:04;100233.53;;;11.73;100.00
76627;BME280;65519;53.230;10.390;2023-08-31T04:14:30;100234.16;;;11.65;99.19
76627;BME280;65519;53.230;10.390;2023-08-31T04:16:56;100244.41;;;11.83;99.68
76627;BME280;65519;53.230;10.390;2023-08-31T04:19:21;100242.28;;;11.75;98.27
76627;BME280;65519;53.230;10.390;2023-08-31T04:21:47;100245.31;;;11.68;99.56
76627;BME280;65519;53.230;10.390;2023-08-31T04:24:13;100246.44;;;11.67;99.86
76627;BME280;65519;53.230;10.390;2023-08-31T04:26:38;100244.31;;;11.59;99.17
76627;BME280;65519;53.230;10.390;2023-08-31T04:29:04;100247.38;;;11.53;99.27
76627;BME280;65519;53.230;10.390;2023-08-31T04:31:31;100247.03;;;11.59;100.00
76627;BME280;65519;53.230;10.390;2023-08-31T04:33:57;100248.63;;;11.65;99.58
76627;BME280;65519;53.230;10.390;2023-08-31T04:36:22;100236.19;;;11.54;99.17
76627;BME280;65519;53.230;10.390;2023-08-31T04:38:48;100256.31;;;11.58;100.00
76627;BME280;65519;53.230;10.390;2023-08-31T04:41:14;100264.47;;;11.63;98.09
76627;BME280;65519;53.230;10.390;2023-08-31T04:43:40;100245.75;;;11.52;99.11
76627;BME280;65519;53.230;10.390;2023-08-31T04:46:05;100248.75;;;11.50;98.54
76627;BME280;65519;53.230;10.390;2023-08-31T04:48:32;100275.66;;;11.67;100.00
76627;BME280;65519;53.230;10.390;2023-08-31T04:50:57;100258.50;;;11.61;98.90
76627;BME280;65519;53.230;10.390;2023-08-31T04:53:23;100272.63;;;11.68;98.33
76627;BME280;65519;53.230;10.390;2023-08-31T04:55:48;100277.03;;;11.64;99.41
76627;BME280;65519;53.230;10.390;2023-08-31T04:58:14;100282.44;;;11.69;98.55
76627;BME280;65519;53.230;10.390;2023-08-31T05:00:39;100275.34;;;11.68;98.46
76627;BME280;65519;53.230;10.390;2023-08-31T05:03:05;100275.88;;;11.70;98.58
76627;BME280;65519;53.230;10.390;2023-08-31T05:05:31;100287.91;;;11.69;98.58
76627;BME280;65519;53.230;10.390;2023-08-31T05:07:56;100289.19;;;11.82;97.76
76627;BME280;65519;53.230;10.390;2023-08-31T05:10:22;100285.13;;;11.75;96.80
76627;BME280;65519;53.230;10.390;2023-08-31T05:12:47;100290.06;;;11.73;97.79
76627;BME280;65519;53.230;10.390;2023-08-31T05:15:13;100288.38;;;11.82;98.48
76627;BME280;65519;53.230;10.390;2023-08-31T05:17:38;100289.53;;;11.76;98.56
76627;BME280;65519;53.230;10.390;2023-08-31T05:20:04;100299.53;;;11.85;97.83
76627;BME280;65519;53.230;10.390;2023-08-31T05:22:30;100298.72;;;11.85;98.44
76627;BME280;65519;53.230;10.390;2023-08-31T05:24:56;100301.13;;;11.91;97.54
76627;BME280;65519;53.230;10.390;2023-08-31T05:27:22;100303.38;;;11.84;97.53
76627;BME280;65519;53.230;10.390;2023-08-31T05:29:47;100291.97;;;11.72;97.91
76627;BME280;65519;53.230;10.390;2023-08-31T05:32:13;100308.59;;;11.81;98.70
76627;BME280;65519;53.230;10.390;2023-08-31T05:34:38;100309.66;;;11.85;98.99
76627;BME280;65519;53.230;10.390;2023-08-31T05:37:05;100302.81;;;11.87;97.41
76627;BME280;65519;53.230;10.390;2023-08-31T05:39:30;100306.34;;;11.88;97.76
76627;BME280;65519;53.230;10.390;2023-08-31T05:41:56;100316.09;;;11.99;98.28
76627;BME280;65519;53.230;10.390;2023-08-31T05:44:22;100318.47;;;12.05;97.21
76627;BME280;65519;53.230;10.390;2023-08-31T05:46:48;100324.19;;;12.09;97.14
76627;BME280;65519;53.230;10.390;2023-08-31T05:49:13;100311.09;;;12.06;97.46
76627;BME280;65519;53.230;10.390;2023-08-31T05:51:38;100324.66;;;12.16;96.58
76627;BME280;65519;53.230;10.390;2023-08-31T05:54:04;100293.63;;;12.02;96.20
76627;BME280;65519;53.230;10.390;2023-08-31T05:56:30;100308.13;;;12.02;96.94
76627;BME280;65519;53.230;10.390;2023-08-31T05:58:55;100331.22;;;12.15;95.87
76627;BME280;65519;53.230;10.390;2023-08-31T06:01:21;100336.84;;;12.29;96.27
76627;BME280;65519;53.230;10.390;2023-08-31T06:03:50;100331.13;;;12.25;96.15
76627;BME280;65519;53.230;10.390;2023-08-31T06:06:15;100339.50;;;12.34;95.91
76627;BME280;65519;53.230;10.390;2023-08-31T06:08:41;100343.66;;;12.31;96.35
76627;BME280;65519;53.230;10.390;2023-08-31T06:11:08;100337.38;;;12.31;96.94
76627;BME280;65519;53.230;10.390;2023-08-31T06:13:34;100339.00;;;12.32;96.46
76627;BME280;65519;53.230;10.390;2023-08-31T06:15:59;100338.75;;;12.28;95.90
76627;BME280;65519;53.230;10.390;2023-08-31T06:18:25;100338.19;;;12.31;95.36
76627;BME280;65519;53.230;10.390;2023-08-31T06:20:51;100334.44;;;12.46;95.35
76627;BME280;65519;53.230;10.390;2023-08-31T06:23:17;100334.81;;;12.39;96.15
76627;BME280;65519;53.230;10.390;2023-08-31T06:25:42;100339.34;;;12.49;96.68
76627;BME280;65519;53.230;10.390;2023-08-31T06:28:08;100352.19;;;12.49;95.73
76627;BME280;65519;53.230;10.390;2023-08-31T06:30:36;100328.69;;;12.48;96.56
76627;BME280;65519;53.230;10.390;2023-08-31T06:33:02;100349.63;;;12.57;95.36
76627;BME280;65519;53.230;10.390;2023-08-31T06:35:27;100343.31;;;12.62;94.83
76627;BME280;65519;53.230;10.390;2023-08-31T06:37:53;100347.69;;;12.63;95.67
76627;BME280;65519;53.230;10.390;2023-08-31T06:40:21;100340.00;;;12.65;95.33
76627;BME280;65519;53.230;10.390;2023-08-31T06:42:47;100337.59;;;12.58;94.94
76627;BME280;65519;53.230;10.390;2023-08-31T06:45:12;100330.56;;;12.52;93.85
76627;BME280;65519;53.230;10.390;2023-08-31T06:47:37;100344.88;;;12.68;94.67
76627;BME280;65519;53.230;10.390;2023-08-31T06:50:03;100353.03;;;12.73;94.09
76627;BME280;65519;53.230;10.390;2023-08-31T06:52:29;100351.63;;;12.75;94.31
76627;BME280;65519;53.230;10.390;2023-08-31T06:54:54;100355.22;;;12.71;94.24
76627;BME280;65519;53.230;10.390;2023-08-31T06:57:22;100357.94;;;12.76;93.71
76627;BME280;65519;53.230;10.390;2023-08-31T06:59:48;100358.50;;;12.73;93.63
76627;BME280;65519;53.230;10.390;2023-08-31T07:02:14;100348.53;;;12.82;92.90
76627;BME280;65519;53.230;10.390;2023-08-31T07:04:40;100349.13;;;12.79;93.70
76627;BME280;65519;53.230;10.390;2023-08-31T07:07:05;100327.06;;;12.70;93.25
76627;BME280;65519;53.230;10.390;2023-08-31T07:09:31;100358.25;;;12.93;92.86
76627;BME280;65519;53.230;10.390;2023-08-31T07:11:57;100356.16;;;12.85;94.31
76627;BME280;65519;53.230;10.390;2023-08-31T07:14:23;100352.53;;;12.90;92.55
76627;BME280;65519;53.230;10.390;2023-08-31T07:16:49;100354.66;;;12.98;91.80
76627;BME280;65519;53.230;10.390;2023-08-31T07:19:15;100356.09;;;12.90;91.68
76627;BME280;65519;53.230;10.390;2023-08-31T07:21:41;100349.75;;;12.95;92.04
76627;BME280;65519;53.230;10.390;2023-08-31T07:24:06;100348.94;;;12.94;90.94
76627;BME280;65519;53.230;10.390;2023-08-31T07:26:32;100360.00;;;13.08;89.48
76627;BME280;65519;53.230;10.390;2023-08-31T07:28:58;100353.09;;;13.10;88.65
76627;BME280;65519;53.230;10.390;2023-08-31T07:31:23;100349.25;;;13.11;89.31
76627;BME280;65519;53.230;10.390;2023-08-31T07:33:49;100362.31;;;13.20;89.19
76627;BME280;65519;53.230;10.390;2023-08-31T07:36:14;100358.25;;;13.36;89.03
76627;BME280;65519;53.230;10.390;2023-08-31T07:38:40;100366.91;;;13.43;88.59
76627;BME280;65519;53.230;10.390;2023-08-31T07:41:06;100361.81;;;13.55;87.19
76627;BME280;65519;53.230;10.390;2023-08-31T07:43:31;100363.81;;;13.68;86.85
76627;BME280;65519;53.230;10.390;2023-08-31T07:45:57;100358.16;;;13.78;86.63
76627;BME280;65519;53.230;10.390;2023-08-31T07:48:22;100354.91;;;13.76;87.27
76627;BME280;65519;53.230;10.390;2023-08-31T07:50:48;100356.97;;;13.84;88.09
76627;BME280;65519;53.230;10.390;2023-08-31T07:53:14;100371.50;;;13.66;88.03
76627;BME280;65519;53.230;10.390;2023-08-31T07:55:40;100360.31;;;13.44;89.21
76627;BME280;65519;53.230;10.390;2023-08-31T07:58:06;100364.25;;;13.38;90.19
76627;BME280;65519;53.230;10.390;2023-08-31T08:00:31;100373.44;;;13.28;91.26
76627;BME280;65519;53.230;10.390;2023-08-31T08:02:57;100384.81;;;13.17;91.61
76627;BME280;65519;53.230;10.390;2023-08-31T08:05:22;100393.44;;;13.00;93.56
76627;BME280;65519;53.230;10.390;2023-08-31T08:07:48;100392.75;;;12.89;94.29
76627;BME280;65519;53.230;10.390;2023-08-31T08:10:14;100392.34;;;12.77;93.71
76627;BME280;65519;53.230;10.390;2023-08-31T08:12:41;100388.31;;;12.74;95.33
76627;BME280;65519;53.230;10.390;2023-08-31T08:15:10;100388.06;;;12.71;95.68
76627;BME280;65519;53.230;10.390;2023-08-31T08:17:36;100381.53;;;12.67;96.73
76627;BME280;65519;53.230;10.390;2023-08-31T08:20:02;100373.03;;;12.68;96.74
76627;BME280;65519;53.230;10.390;2023-08-31T08:22:28;100393.97;;;12.78;97.59
76627;BME280;65519;53.230;10.390;2023-08-31T08:24:54;100384.16;;;12.77;97.69
76627;BME280;65519;53.230;10.390;2023-08-31T08:27:19;100395.38;;;12.99;95.58
76627;BME280;65519;53.230;10.390;2023-08-31T08:29:46;100393.03;;;13.11;95.14
76627;BME280;65519;53.230;10.390;2023-08-31T08:32:12;100392.13;;;13.21;93.28
76627;BME280;65519;53.230;10.390;2023-08-31T08:34:37;100391.69;;;13.33;91.66
76627;BME280;65519;53.230;10.390;2023-08-31T08:37:03;100384.81;;;13.35;91.46
76627;BME280;65519;53.230;10.390;2023-08-31T08:39:29;100373.28;;;13.57;89.80
76627;BME280;65519;53.230;10.390;2023-08-31T08:41:57;100376.06;;;13.89;89.80
76627;BME280;65519;53.230;10.390;2023-08-31T08:44:24;100384.06;;;14.05;83.84
76627;BME280;65519;53.230;10.390;2023-08-31T08:46:51;100373.56;;;13.93;85.14
76627;BME280;65519;53.230;10.390;2023-08-31T08:49:18;100377.09;;;13.94;84.82
76627;BME280;65519;53.230;10.390;2023-08-31T08:51:45;100370.66;;;14.03;85.18
76627;BME280;65519;53.230;10.390;2023-08-31T08:54:12;100379.16;;;14.02;85.17
76627;BME280;65519;53.230;10.390;2023-08-31T08:56:38;100365.84;;;13.95;85.82
76627;BME280;65519;53.230;10.390;2023-08-31T08:59:05;100367.91;;;14.17;85.52
76627;BME280;65519;53.230;10.390;2023-08-31T09:01:31;100380.16;;;14.24;84.14
76627;BME280;65519;53.230;10.390;2023-08-31T09:03:57;100378.06;;;14.03;84.60
76627;BME280;65519;53.230;10.390;2023-08-31T09:06:23;100368.53;;;14.14;84.51
76627;BME280;65519;53.230;10.390;2023-08-31T09:08:55;100375.47;;;14.57;83.64
76627;BME280;65519;53.230;10.390;2023-08-31T09:11:24;100375.22;;;14.40;84.35
76627;BME280;65519;53.230;10.390;2023-08-31T09:13:51;100378.09;;;14.16;82.18
76627;BME280;65519;53.230;10.390;2023-08-31T09:16:26;100387.63;;;14.51;82.56
76627;BME280;65519;53.230;10.390;2023-08-31T09:18:53;100396.63;;;14.71;80.46
76627;BME280;65519;53.230;10.390;2023-08-31T09:21:19;100376.88;;;14.96;79.79
76627;BME280;65519;53.230;10.390;2023-08-31T09:23:56;100379.84;;;14.58;79.73
76627;BME280;65519;53.230;10.390;2023-08-31T09:26:22;100385.63;;;14.57;81.36
76627;BME280;65519;53.230;10.390;2023-08-31T09:28:48;100382.78;;;14.76;80.60
76627;BME280;65519;53.230;10.390;2023-08-31T09:31:15;100387.44;;;14.48;81.84
76627;BME280;65519;53.230;10.390;2023-08-31T09:33:52;100384.94;;;14.33;84.74
76627;BME280;65519;53.230;10.390;2023-08-31T09:36:20;100390.81;;;14.26;86.57
76627;BME280;65519;53.230;10.390;2023-08-31T09:38:45;100368.53;;;13.81;86.05
76627;BME280;65519;53.230;10.390;2023-08-31T09:41:11;100377.28;;;13.83;87.21
76627;BME280;65519;53.230;10.390;2023-08-31T09:43:37;100381.13;;;13.82;88.15
76627;BME280;65519;53.230;10.390;2023-08-31T09:46:04;100382.31;;;13.76;89.74
76627;BME280;65519;53.230;10.390;2023-08-31T09:48:30;100387.88;;;13.71;92.22
76627;BME280;65519;53.230;10.390;2023-08-31T09:50:56;100392.56;;;13.84;91.09
76627;BME280;65519;53.230;10.390;2023-08-31T09:53:24;100397.25;;;13.65;89.52
76627;BME280;65519;53.230;10.390;2023-08-31T09:55:51;100403.63;;;13.61;90.60
76627;BME280;65519;53.230;10.390;2023-08-31T09:58:19;100402.34;;;13.53;87.52
76627;BME280;65519;53.230;10.390;2023-08-31T10:00:52;100399.56;;;13.39;87.27
76627;BME280;65519;53.230;10.390;2023-08-31T10:03:18;100412.88;;;13.46;86.46
76627;BME280;65519;53.230;10.390;2023-08-31T10:05:48;100408.50;;;13.45;87.57
76627;BME280;65519;53.230;10.390;2023-08-31T10:08:15;100413.84;;;13.55;85.99
76627;BME280;65519;53.230;10.390;2023-08-31T10:10:41;100416.06;;;13.72;86.16
76627;BME280;65519;53.230;10.390;2023-08-31T10:13:07;100407.63;;;13.87;85.32
76627;BME280;65519;53.230;10.390;2023-08-31T10:15:36;100406.56;;;14.02;85.96
76627;BME280;65519;53.230;10.390;2023-08-31T10:18:05;100405.34;;;14.27;84.62
76627;BME280;65519;53.230;10.390;2023-08-31T10:20:32;100403.41;;;14.59;83.78
76627;BME280;65519;53.230;10.390;2023-08-31T10:22:59;100403.44;;;14.87;82.56
76627;BME280;65519;53.230;10.390;2023-08-31T10:28:22;100414.66;;;14.44;79.46
76627;BME280;65519;53.230;10.390;2023-08-31T10:31:04;100411.31;;;14.47;83.13
76627;BME280;65519;53.230;10.390;2023-08-31T10:33:56;100411.38;;;14.42;82.37
76627;BME280;65519;53.230;10.390;2023-08-31T10:36:47;100413.03;;;14.43;83.09
76627;BME280;65519;53.230;10.390;2023-08-31T10:39:15;100408.66;;;14.23;84.94
76627;BME280;65519;53.230;10.390;2023-08-31T10:41:54;100406.75;;;14.24;84.61
76627;BME280;65519;53.230;10.390;2023-08-31T10:44:20;100409.59;;;14.33;84.71
76627;BME280;65519;53.230;10.390;2023-08-31T10:46:48;100392.94;;;14.48;83.56
76627;BME280;65519;53.230;10.390;2023-08-31T10:49:14;100399.72;;;14.50;82.85
76627;BME280;65519;53.230;10.390;2023-08-31T10:51:43;100398.94;;;14.77;82.54
76627;BME280;65519;53.230;10.390;2023-08-31T10:59:17;100393.66;;;14.94;79.31
76627;BME280;65519;53.230;10.390;2023-08-31T11:02:01;100395.72;;;15.03;78.97
76627;BME280;65519;53.230;10.390;2023-08-31T11:04:29;100388.16;;;15.22;78.59
76627;BME280;65519;53.230;10.390;2023-08-31T11:09:44;100380.50;;;15.82;75.85
76627;BME280;65519;53.230;10.390;2023-08-31T11:12:10;100369.88;;;16.12;75.46
76627;BME280;65519;53.230;10.390;2023-08-31T11:14:36;100378.78;;;16.39;73.70
76627;BME280;65519;53.230;10.390;2023-08-31T11:17:02;100380.56;;;16.44;72.45
76627;BME280;65519;53.230;10.390;2023-08-31T11:19:31;100379.72;;;16.35;73.90
76627;BME280;65519;53.230;10.390;2023-08-31T11:21:57;100378.63;;;16.14;74.36
76627;BME280;65519;53.230;10.390;2023-08-31T11:24:22;100382.56;;;15.99;75.96
76627;BME280;65519;53.230;10.390;2023-08-31T11:26:51;100370.13;;;15.79;76.77
76627;BME280;65519;53.230;10.390;2023-08-31T11:29:17;100381.44;;;16.22;73.97
76627;BME280;65519;53.230;10.390;2023-08-31T11:31:43;100381.19;;;16.32;72.17
76627;BME280;65519;53.230;10.390;2023-08-31T11:34:12;100389.44;;;17.03;71.10
76627;BME280;65519;53.230;10.390;2023-08-31T11:36:40;100378.19;;;17.30;68.69
76627;BME280;65519;53.230;10.390;2023-08-31T11:39:06;100384.44;;;17.05;69.09
76627;BME280;65519;53.230;10.390;2023-08-31T11:41:33;100383.97;;;17.20;67.92
76627;BME280;65519;53.230;10.390;2023-08-31T11:44:01;100392.09;;;17.25;67.56
76627;BME280;65519;53.230;10.390;2023-08-31T11:46:26;100391.38;;;17.02;67.69
76627;BME280;65519;53.230;10.390;2023-08-31T11:48:52;100399.31;;;16.95;66.19
76627;BME280;65519;53.230;10.390;2023-08-31T11:51:19;100398.78;;;16.85;67.06
76627;BME280;65519;53.230;10.390;2023-08-31T11:53:45;100401.59;;;16.62;68.40
76627;BME280;65519;53.230;10.390;2023-08-31T11:56:10;100398.06;;;16.70;69.70
76627;BME280;65519;53.230;10.390;2023-08-31T11:58:41;100401.88;;;16.61;70.15
76627;BME280;65519;53.230;10.390;2023-08-31T12:01:08;100398.31;;;16.60;68.73
76627;BME280;65519;53.230;10.390;2023-08-31T12:03:43;100405.19;;;17.11;68.68
76627;BME280;65519;53.230;10.390;2023-08-31T12:06:17;100404.69;;;17.09;67.28
76627;BME280;65519;53.230;10.390;2023-08-31T12:08:43;100410.00;;;16.97;67.37
76627;BME280;65519;53.230;10.390;2023-08-31T12:11:09;100406.56;;;16.91;68.50
76627;BME280;65519;53.230;10.390;2023-08-31T12:13:34;100408.16;;;16.84;69.09
76627;BME280;65519;53.230;10.390;2023-08-31T12:16:00;100401.00;;;16.74;68.23
76627;BME280;65519;53.230;10.390;2023-08-31T12:18:30;100408.06;;;16.66;68.24
76627;BME280;65519;53.230;10.390;2023-08-31T12:20:58;100403.81;;;16.91;67.81
76627;BME280;65519;53.230;10.390;2023-08-31T12:23:24;100407.63;;;17.21;69.16
76627;BME280;65519;53.230;10.390;2023-08-31T12:25:52;100397.44;;;17.22;66.45
76627;BME280;65519;53.230;10.390;2023-08-31T12:28:18;100403.94;;;17.26;66.58
76627;BME280;65519;53.230;10.390;2023-08-31T12:30:49;100407.47;;;17.18;65.42
76627;BME280;65519;53.230;10.390;2023-08-31T12:33:18;100404.94;;;17.30;64.62
76627;BME280;65519;53.230;10.390;2023-08-31T12:35:44;100416.03;;;17.73;65.11
76627;BME280;65519;53.230;10.390;2023-08-31T12:38:10;100406.63;;;17.82;65.90
76627;BME280;65519;53.230;10.390;2023-08-31T12:40:36;100402.09;;;17.95;63.61
76627;BME280;65519;53.230;10.390;2023-08-31T12:43:04;100401.44;;;18.15;64.20
76627;BME280;65519;53.230;10.390;2023-08-31T12:45:30;100414.25;;;18.11;61.85
76627;BME280;65519;53.230;10.390;2023-08-31T12:47:56;100417.00;;;18.20;60.48
76627;BME280;65519;53.230;10.390;2023-08-31T12:50:21;100413.91;;;18.13;60.38
76627;BME280;65519;53.230;10.390;2023-08-31T12:52:46;100413.41;;;18.28;59.39
76627;BME280;65519;53.230;10.390;2023-08-31T12:55:16;100417.31;;;18.36;58.82
76627;BME280;65519;53.230;10.390;2023-08-31T12:57:42;100407.59;;;18.12;59.33
76627;BME280;65519;53.230;10.390;2023-08-31T13:00:09;100403.53;;;18.01;60.51